sensor_id;sensor_type;location;lat;lon;timestamp;temperature;humidity
5675;DHT22;2860;54.284;10.158;2022-08-21T00:01:58;12.80;99.90
5675;DHT22;2860;54.284;10.158;2022-08-21T00:04:24;12.70;99.90
5675;DHT22;2860;54.284;10.158;2022-08-21T00:06:51;12.70;99.90
5675;DHT22;2860;54.284;10.158;2022-08-21T00:09:18;12.70;99.90
5675;DHT22;2860;54.284;10.158;2022-08-21T00:11:44;12.70;99.90
5675;DHT22;2860;54.284;10.158;2022-08-21T00:14:10;12.70;99.90
5675;DHT22;2860;54.284;10.158;2022-08-21T00:16:36;12.70;99.90
5675;DHT22;2860;54.284;10.158;2022-08-21T00:19:03;12.70;99.90
5675;DHT22;2860;54.284;10.158;2022-08-21T00:21:28;12.60;99.90
5675;DHT22;2860;54.284;10.158;2022-08-21T00:23:54;12.60;99.90
5675;DHT22;2860;54.284;10.158;2022-08-21T00:26:19;12.60;99.90
5675;DHT22;2860;54.284;10.158;2022-08-21T00:28:45;12.60;99.90
5675;DHT22;2860;54.284;10.158;2022-08-21T00:31:11;12.60;99.90
5675;DHT22;2860;54.284;10.158;2022-08-21T00:33:37;12.50;99.90
5675;DHT22;2860;54.284;10.158;2022-08-21T00:36:03;12.50;99.90
5675;DHT22;2860;54.284;10.158;2022-08-21T00:38:30;12.50;99.90
5675;DHT22;2860;54.284;10.158;2022-08-21T00:40:59;12.50;99.90
5675;DHT22;2860;54.284;10.158;2022-08-21T00:43:28;12.40;99.90
5675;DHT22;2860;54.284;10.158;2022-08-21T00:45:55;12.40;99.90
5675;DHT22;2860;54.284;10.158;2022-08-21T00:48:22;12.40;99.90
5675;DHT22;2860;54.284;10.158;2022-08-21T00:51:02;12.40;99.90
5675;DHT22;2860;54.284;10.158;2022-08-21T00:53:29;12.40;99.90
5675;DHT22;2860;54.284;10.158;2022-08-21T00:55:56;12.40;99.90
5675;DHT22;2860;54.284;10.158;2022-08-21T00:58:22;12.30;99.90
5675;DHT22;2860;54.284;10.158;2022-08-21T01:00:50;12.30;99.90
5675;DHT22;2860;54.284;10.158;2022-08-21T01:03:19;12.30;99.90
5675;DHT22;2860;54.284;10.158;2022-08-21T01:05:45;12.30;99.90
5675;DHT22;2860;54.284;10.158;2022-08-21T01:08:12;12.20;99.90
5675;DHT22;2860;54.284;10.158;2022-08-21T01:10:38;12.20;99.90
5675;DHT22;2860;54.284;10.158;2022-08-21T01:13:06;12.20;99.90
5675;DHT22;2860;54.284;10.158;2022-08-21T01:15:35;12.20;99.90
5675;DHT22;2860;54.284;10.158;2022-08-21T01:18:03;12.20;99.90
5675;DHT22;2860;54.284;10.158;2022-08-21T01:20:30;12.10;99.90
5675;DHT22;2860;54.284;10.158;2022-08-21T01:22:55;12.10;99.90
5675;DHT22;2860;54.284;10.158;2022-08-21T01:25:21;12.10;99.90
5675;DHT22;2860;54.284;10.158;2022-08-21T01:27:47;12.10;99.90
5675;DHT22;2860;54.284;10.158;2022-08-21T01:30:16;12.10;99.90
5675;DHT22;2860;54.284;10.158;2022-08-21T01:32:43;12.10;99.90
5675;DHT22;2860;54.284;10.158;2022-08-21T01:35:10;12.10;99.90
5675;DHT22;2860;54.284;10.158;2022-08-21T01:37:36;12.10;99.90
5675;DHT22;2860;54.284;10.158;2022-08-21T01:40:04;12.00;99.90
5675;DHT22;2860;54.284;10.158;2022-08-21T01:42:30;12.00;99.90
5675;DHT22;2860;54.284;10.158;2022-08-21T01:44:55;12.00;99.90
5675;DHT22;2860;54.284;10.158;2022-08-21T01:47:22;12.00;99.90
5675;DHT22;2860;54.284;10.158;2022-08-21T01:49:47;12.00;99.90
5675;DHT22;2860;54.284;10.158;2022-08-21T01:52:13;11.90;99.90
5675;DHT22;2860;54.284;10.158;2022-08-21T01:54:39;11.90;99.90
5675;DHT22;2860;54.284;10.158;2022-08-21T01:57:05;11.90;99.90
5675;DHT22;2860;54.284;10.158;2022-08-21T01:59:31;11.90;99.90
5675;DHT22;2860;54.284;10.158;2022-08-21T02:01:57;11.90;99.90
5675;DHT22;2860;54.284;10.158;2022-08-21T02:04:23;11.90;99.90
5675;DHT22;2860;54.284;10.158;2022-08-21T02:06:49;11.90;99.90
5675;DHT22;2860;54.284;10.158;2022-08-21T02:12:36;11.90;99.90
5675;DHT22;2860;54.284;10.158;2022-08-21T02:15:03;11.90;99.90
5675;DHT22;2860;54.284;10.158;2022-08-21T02:17:47;11.90;99.90
5675;DHT22;2860;54.284;10.158;2022-08-21T02:20:26;11.90;99.90
5675;DHT22;2860;54.284;10.158;2022-08-21T02:22:54;11.80;99.90
5675;DHT22;2860;54.284;10.158;2022-08-21T02:25:21;11.80;99.90
5675;DHT22;2860;54.284;10.158;2022-08-21T02:27:47;11.80;99.90
5675;DHT22;2860;54.284;10.158;2022-08-21T02:30:17;11.80;99.90
5675;DHT22;2860;54.284;10.158;2022-08-21T02:32:42;11.70;99.90
5675;DHT22;2860;54.284;10.158;2022-08-21T02:35:10;11.70;99.90
5675;DHT22;2860;54.284;10.158;2022-08-21T02:37:58;11.70;99.90
5675;DHT22;2860;54.284;10.158;2022-08-21T02:40:27;11.70;99.90
5675;DHT22;2860;54.284;10.158;2022-08-21T02:42:52;11.70;99.90
5675;DHT22;2860;54.284;10.158;2022-08-21T02:45:19;11.70;99.90
5675;DHT22;2860;54.284;10.158;2022-08-21T02:47:57;11.70;99.90
5675;DHT22;2860;54.284;10.158;2022-08-21T02:50:27;11.70;99.90
5675;DHT22;2860;54.284;10.158;2022-08-21T02:52:53;11.60;99.90
5675;DHT22;2860;54.284;10.158;2022-08-21T02:55:20;11.60;99.90
5675;DHT22;2860;54.284;10.158;2022-08-21T02:57:46;11.60;99.90
5675;DHT22;2860;54.284;10.158;2022-08-21T03:00:12;11.60;99.90
5675;DHT22;2860;54.284;10.158;2022-08-21T03:02:39;11.50;99.90
5675;DHT22;2860;54.284;10.158;2022-08-21T03:05:06;11.60;99.90
5675;DHT22;2860;54.284;10.158;2022-08-21T03:07:32;11.60;99.90
5675;DHT22;2860;54.284;10.158;2022-08-21T03:09:58;11.60;99.90
5675;DHT22;2860;54.284;10.158;2022-08-21T03:12:24;11.60;99.90
5675;DHT22;2860;54.284;10.158;2022-08-21T03:14:50;11.60;99.90
5675;DHT22;2860;54.284;10.158;2022-08-21T03:17:15;11.50;99.90
5675;DHT22;2860;54.284;10.158;2022-08-21T03:19:41;11.50;99.90
5675;DHT22;2860;54.284;10.158;2022-08-21T03:22:06;11.50;99.90
5675;DHT22;2860;54.284;10.158;2022-08-21T03:24:32;11.50;99.90
5675;DHT22;2860;54.284;10.158;2022-08-21T03:26:57;11.50;99.90
5675;DHT22;2860;54.284;10.158;2022-08-21T03:29:23;11.50;99.90
5675;DHT22;2860;54.284;10.158;2022-08-21T03:31:49;11.50;99.90
5675;DHT22;2860;54.284;10.158;2022-08-21T03:34:14;11.50;99.90
5675;DHT22;2860;54.284;10.158;2022-08-21T03:36:40;11.50;99.90
5675;DHT22;2860;54.284;10.158;2022-08-21T03:39:05;11.50;99.90
5675;DHT22;2860;54.284;10.158;2022-08-21T03:41:31;11.50;99.90
5675;DHT22;2860;54.284;10.158;2022-08-21T03:43:56;11.50;99.90
5675;DHT22;2860;54.284;10.158;2022-08-21T03:46:22;11.40;99.90
5675;DHT22;2860;54.284;10.158;2022-08-21T03:48:47;11.40;99.90
5675;DHT22;2860;54.284;10.158;2022-08-21T03:51:13;11.40;99.90
5675;DHT22;2860;54.284;10.158;2022-08-21T03:53:40;11.40;99.90
5675;DHT22;2860;54.284;10.158;2022-08-21T03:56:06;11.40;99.90
5675;DHT22;2860;54.284;10.158;2022-08-21T03:58:32;11.40;99.90
5675;DHT22;2860;54.284;10.158;2022-08-21T04:00:59;11.40;99.90
5675;DHT22;2860;54.284;10.158;2022-08-21T04:03:26;11.40;99.90
5675;DHT22;2860;54.284;10.158;2022-08-21T04:05:52;11.40;99.90
5675;DHT22;2860;54.284;10.158;2022-08-21T04:08:18;11.40;99.90
5675;DHT22;2860;54.284;10.158;2022-08-21T04:10:45;11.40;99.90
5675;DHT22;2860;54.284;10.158;2022-08-21T04:13:11;11.40;99.90
5675;DHT22;2860;54.284;10.158;2022-08-21T04:15:37;11.30;99.90
5675;DHT22;2860;54.284;10.158;2022-08-21T04:18:04;11.40;99.90
5675;DHT22;2860;54.284;10.158;2022-08-21T04:20:29;11.40;99.90
5675;DHT22;2860;54.284;10.158;2022-08-21T04:22:55;11.40;99.90
5675;DHT22;2860;54.284;10.158;2022-08-21T04:25:22;11.40;99.90
5675;DHT22;2860;54.284;10.158;2022-08-21T04:27:48;11.40;99.90
5675;DHT22;2860;54.284;10.158;2022-08-21T04:30:15;11.40;99.90
5675;DHT22;2860;54.284;10.158;2022-08-21T04:32:47;11.40;99.90
5675;DHT22;2860;54.284;10.158;2022-08-21T04:35:15;11.40;99.90
5675;DHT22;2860;54.284;10.158;2022-08-21T04:37:41;11.40;99.90
5675;DHT22;2860;54.284;10.158;2022-08-21T04:40:08;11.40;99.90
5675;DHT22;2860;54.284;10.158;2022-08-21T04:45:25;11.40;99.90
5675;DHT22;2860;54.284;10.158;2022-08-21T04:47:52;11.40;99.90
5675;DHT22;2860;54.284;10.158;2022-08-21T04:50:22;11.50;99.90
5675;DHT22;2860;54.284;10.158;2022-08-21T04:52:49;11.50;99.90
5675;DHT22;2860;54.284;10.158;2022-08-21T04:55:16;11.60;99.90
5675;DHT22;2860;54.284;10.158;2022-08-21T04:57:43;11.60;99.90
5675;DHT22;2860;54.284;10.158;2022-08-21T05:00:09;11.70;99.90
5675;DHT22;2860;54.284;10.158;2022-08-21T05:02:38;11.70;99.90
5675;DHT22;2860;54.284;10.158;2022-08-21T05:05:05;11.80;99.90
5675;DHT22;2860;54.284;10.158;2022-08-21T05:07:32;11.80;99.90
5675;DHT22;2860;54.284;10.158;2022-08-21T05:09:59;11.90;99.90
5675;DHT22;2860;54.284;10.158;2022-08-21T05:12:25;11.90;99.90
5675;DHT22;2860;54.284;10.158;2022-08-21T05:14:50;12.00;99.90
5675;DHT22;2860;54.284;10.158;2022-08-21T05:17:16;12.10;99.90
5675;DHT22;2860;54.284;10.158;2022-08-21T05:19:41;12.10;99.90
5675;DHT22;2860;54.284;10.158;2022-08-21T05:22:07;12.40;99.90
5675;DHT22;2860;54.284;10.158;2022-08-21T05:24:34;12.90;99.90
5675;DHT22;2860;54.284;10.158;2022-08-21T05:27:00;13.30;99.90
5675;DHT22;2860;54.284;10.158;2022-08-21T05:29:25;13.80;99.90
5675;DHT22;2860;54.284;10.158;2022-08-21T05:31:51;14.40;99.90
5675;DHT22;2860;54.284;10.158;2022-08-21T05:34:19;15.10;99.90
5675;DHT22;2860;54.284;10.158;2022-08-21T05:36:45;15.80;99.90
5675;DHT22;2860;54.284;10.158;2022-08-21T05:39:11;16.40;99.90
5675;DHT22;2860;54.284;10.158;2022-08-21T05:41:37;17.00;99.90
5675;DHT22;2860;54.284;10.158;2022-08-21T05:44:03;17.60;99.90
5675;DHT22;2860;54.284;10.158;2022-08-21T05:46:29;18.10;99.90
5675;DHT22;2860;54.284;10.158;2022-08-21T05:48:55;18.40;99.90
5675;DHT22;2860;54.284;10.158;2022-08-21T05:51:20;18.80;99.90
5675;DHT22;2860;54.284;10.158;2022-08-21T05:53:46;19.10;99.90
5675;DHT22;2860;54.284;10.158;2022-08-21T05:56:13;19.30;99.90
5675;DHT22;2860;54.284;10.158;2022-08-21T05:58:39;19.50;99.90
5675;DHT22;2860;54.284;10.158;2022-08-21T06:01:05;19.60;99.90
5675;DHT22;2860;54.284;10.158;2022-08-21T06:03:33;19.60;99.90
5675;DHT22;2860;54.284;10.158;2022-08-21T06:05:59;19.70;99.90
5675;DHT22;2860;54.284;10.158;2022-08-21T06:08:26;19.70;99.90
5675;DHT22;2860;54.284;10.158;2022-08-21T06:10:53;19.70;99.90
5675;DHT22;2860;54.284;10.158;2022-08-21T06:13:20;19.70;99.90
5675;DHT22;2860;54.284;10.158;2022-08-21T06:15:46;19.70;99.90
5675;DHT22;2860;54.284;10.158;2022-08-21T06:18:12;19.60;99.90
5675;DHT22;2860;54.284;10.158;2022-08-21T06:20:39;19.40;99.90
5675;DHT22;2860;54.284;10.158;2022-08-21T06:23:05;19.30;99.90
5675;DHT22;2860;54.284;10.158;2022-08-21T06:25:30;19.10;99.90
5675;DHT22;2860;54.284;10.158;2022-08-21T06:28:07;18.90;99.90
5675;DHT22;2860;54.284;10.158;2022-08-21T06:30:34;18.80;99.90
5675;DHT22;2860;54.284;10.158;2022-08-21T06:33:01;18.60;99.90
5675;DHT22;2860;54.284;10.158;2022-08-21T06:35:28;18.50;99.90
5675;DHT22;2860;54.284;10.158;2022-08-21T06:37:54;18.50;99.90
5675;DHT22;2860;54.284;10.158;2022-08-21T06:40:20;18.50;99.90
5675;DHT22;2860;54.284;10.158;2022-08-21T06:42:46;18.40;99.90
5675;DHT22;2860;54.284;10.158;2022-08-21T06:45:12;18.50;99.90
5675;DHT22;2860;54.284;10.158;2022-08-21T06:47:38;18.50;99.90
5675;DHT22;2860;54.284;10.158;2022-08-21T06:50:04;18.60;99.90
5675;DHT22;2860;54.284;10.158;2022-08-21T06:52:33;18.60;99.90
5675;DHT22;2860;54.284;10.158;2022-08-21T06:54:58;18.70;99.90
5675;DHT22;2860;54.284;10.158;2022-08-21T06:57:24;18.70;99.90
5675;DHT22;2860;54.284;10.158;2022-08-21T06:59:50;18.80;99.90
5675;DHT22;2860;54.284;10.158;2022-08-21T07:02:16;18.90;99.90
5675;DHT22;2860;54.284;10.158;2022-08-21T07:04:42;19.00;99.90
5675;DHT22;2860;54.284;10.158;2022-08-21T07:07:08;19.10;99.90
5675;DHT22;2860;54.284;10.158;2022-08-21T07:09:33;19.20;99.90
5675;DHT22;2860;54.284;10.158;2022-08-21T07:11:59;19.30;99.90
5675;DHT22;2860;54.284;10.158;2022-08-21T07:14:25;19.40;99.90
5675;DHT22;2860;54.284;10.158;2022-08-21T07:16:50;19.50;99.90
5675;DHT22;2860;54.284;10.158;2022-08-21T07:19:17;19.60;99.90
5675;DHT22;2860;54.284;10.158;2022-08-21T07:21:43;19.70;99.90
5675;DHT22;2860;54.284;10.158;2022-08-21T07:24:08;19.80;99.90
5675;DHT22;2860;54.284;10.158;2022-08-21T07:26:34;19.90;99.90
5675;DHT22;2860;54.284;10.158;2022-08-21T07:29:00;19.90;99.90
5675;DHT22;2860;54.284;10.158;2022-08-21T07:31:26;20.00;99.90
5675;DHT22;2860;54.284;10.158;2022-08-21T07:33:52;20.20;99.90
5675;DHT22;2860;54.284;10.158;2022-08-21T07:36:18;20.30;99.90
5675;DHT22;2860;54.284;10.158;2022-08-21T07:38:43;20.40;99.90
5675;DHT22;2860;54.284;10.158;2022-08-21T07:41:18;20.60;99.90
5675;DHT22;2860;54.284;10.158;2022-08-21T07:43:45;20.70;99.90
5675;DHT22;2860;54.284;10.158;2022-08-21T07:46:11;20.70;99.90
5675;DHT22;2860;54.284;10.158;2022-08-21T07:48:37;20.70;99.90
5675;DHT22;2860;54.284;10.158;2022-08-21T07:51:07;20.90;99.90
5675;DHT22;2860;54.284;10.158;2022-08-21T07:53:33;20.90;99.90
5675;DHT22;2860;54.284;10.158;2022-08-21T07:55:59;21.00;99.90
5675;DHT22;2860;54.284;10.158;2022-08-21T07:58:25;21.10;99.90
5675;DHT22;2860;54.284;10.158;2022-08-21T08:00:51;21.20;99.90
5675;DHT22;2860;54.284;10.158;2022-08-21T08:03:18;21.40;99.90
5675;DHT22;2860;54.284;10.158;2022-08-21T08:05:43;21.50;99.90
5675;DHT22;2860;54.284;10.158;2022-08-21T08:08:09;21.60;99.90
5675;DHT22;2860;54.284;10.158;2022-08-21T08:10:35;21.70;99.90
5675;DHT22;2860;54.284;10.158;2022-08-21T08:13:01;21.90;99.90
5675;DHT22;2860;54.284;10.158;2022-08-21T08:15:27;21.90;99.90
5675;DHT22;2860;54.284;10.158;2022-08-21T08:17:53;22.00;99.90
5675;DHT22;2860;54.284;10.158;2022-08-21T08:20:20;22.10;99.90
5675;DHT22;2860;54.284;10.158;2022-08-21T08:22:47;22.20;99.90
5675;DHT22;2860;54.284;10.158;2022-08-21T08:25:14;22.30;99.90
5675;DHT22;2860;54.284;10.158;2022-08-21T08:27:40;22.40;99.90
5675;DHT22;2860;54.284;10.158;2022-08-21T08:30:07;22.50;99.90
5675;DHT22;2860;54.284;10.158;2022-08-21T08:32:33;22.50;99.90
5675;DHT22;2860;54.284;10.158;2022-08-21T08:34:59;22.60;99.90
5675;DHT22;2860;54.284;10.158;2022-08-21T08:37:25;22.70;99.90
5675;DHT22;2860;54.284;10.158;2022-08-21T08:39:51;22.70;99.90
5675;DHT22;2860;54.284;10.158;2022-08-21T08:42:27;22.80;99.90
5675;DHT22;2860;54.284;10.158;2022-08-21T08:45:08;22.90;99.90
5675;DHT22;2860;54.284;10.158;2022-08-21T08:47:37;23.10;99.90
5675;DHT22;2860;54.284;10.158;2022-08-21T08:50:10;23.20;99.90
5675;DHT22;2860;54.284;10.158;2022-08-21T08:52:43;23.30;99.90
5675;DHT22;2860;54.284;10.158;2022-08-21T08:55:17;23.40;99.90
5675;DHT22;2860;54.284;10.158;2022-08-21T08:57:51;23.50;99.90
5675;DHT22;2860;54.284;10.158;2022-08-21T09:00:19;23.70;99.90
5675;DHT22;2860;54.284;10.158;2022-08-21T09:02:46;23.60;99.90
5675;DHT22;2860;54.284;10.158;2022-08-21T09:05:25;23.70;99.90
5675;DHT22;2860;54.284;10.158;2022-08-21T09:10:38;23.70;99.90
5675;DHT22;2860;54.284;10.158;2022-08-21T09:13:19;23.80;99.90
5675;DHT22;2860;54.284;10.158;2022-08-21T09:16:13;23.80;99.90
5675;DHT22;2860;54.284;10.158;2022-08-21T09:19:02;24.00;99.90
5675;DHT22;2860;54.284;10.158;2022-08-21T09:21:50;24.20;99.90
5675;DHT22;2860;54.284;10.158;2022-08-21T09:27:13;24.20;99.90
5675;DHT22;2860;54.284;10.158;2022-08-21T09:29:45;24.20;99.90
5675;DHT22;2860;54.284;10.158;2022-08-21T09:32:23;24.10;99.90
5675;DHT22;2860;54.284;10.158;2022-08-21T09:37:45;24.20;99.90
5675;DHT22;2860;54.284;10.158;2022-08-21T09:40:41;24.10;99.90
5675;DHT22;2860;54.284;10.158;2022-08-21T09:43:24;24.00;99.90
5675;DHT22;2860;54.284;10.158;2022-08-21T09:48:39;24.00;99.90
5675;DHT22;2860;54.284;10.158;2022-08-21T09:51:10;24.20;99.90
5675;DHT22;2860;54.284;10.158;2022-08-21T09:53:41;24.30;99.90
5675;DHT22;2860;54.284;10.158;2022-08-21T09:56:27;24.50;99.90
5675;DHT22;2860;54.284;10.158;2022-08-21T09:59:32;24.80;99.90
5675;DHT22;2860;54.284;10.158;2022-08-21T10:02:00;25.00;99.90
5675;DHT22;2860;54.284;10.158;2022-08-21T10:04:32;25.30;99.90
5675;DHT22;2860;54.284;10.158;2022-08-21T10:07:12;25.40;99.90
5675;DHT22;2860;54.284;10.158;2022-08-21T10:09:39;25.60;99.90
5675;DHT22;2860;54.284;10.158;2022-08-21T10:12:33;25.50;99.90
5675;DHT22;2860;54.284;10.158;2022-08-21T10:15:16;25.30;99.90
5675;DHT22;2860;54.284;10.158;2022-08-21T10:20:22;25.20;99.90
5675;DHT22;2860;54.284;10.158;2022-08-21T10:26:09;25.40;99.90
5675;DHT22;2860;54.284;10.158;2022-08-21T10:31:56;25.40;99.90
5675;DHT22;2860;54.284;10.158;2022-08-21T10:34:48;25.40;99.90
5675;DHT22;2860;54.284;10.158;2022-08-21T10:40:07;25.80;99.90
5675;DHT22;2860;54.284;10.158;2022-08-21T10:47:56;25.20;99.90
5675;DHT22;2860;54.284;10.158;2022-08-21T10:50:42;25.30;99.90
5675;DHT22;2860;54.284;10.158;2022-08-21T10:55:55;25.40;99.90
5675;DHT22;2860;54.284;10.158;2022-08-21T10:58:38;25.20;99.90
5675;DHT22;2860;54.284;10.158;2022-08-21T11:01:27;24.70;99.90
5675;DHT22;2860;54.284;10.158;2022-08-21T11:04:16;24.60;99.90
5675;DHT22;2860;54.284;10.158;2022-08-21T11:06:47;24.30;99.90
5675;DHT22;2860;54.284;10.158;2022-08-21T11:09:17;24.10;99.90
5675;DHT22;2860;54.284;10.158;2022-08-21T11:11:52;24.10;99.90
5675;DHT22;2860;54.284;10.158;2022-08-21T11:14:28;24.20;99.90
5675;DHT22;2860;54.284;10.158;2022-08-21T11:17:13;24.40;99.90
5675;DHT22;2860;54.284;10.158;2022-08-21T11:19:47;24.60;99.90
5675;DHT22;2860;54.284;10.158;2022-08-21T11:22:24;24.80;99.90
5675;DHT22;2860;54.284;10.158;2022-08-21T11:25:21;25.00;99.90
5675;DHT22;2860;54.284;10.158;2022-08-21T11:30:58;24.90;99.90
5675;DHT22;2860;54.284;10.158;2022-08-21T11:33:56;24.70;99.90
5675;DHT22;2860;54.284;10.158;2022-08-21T11:39:48;24.60;99.90
5675;DHT22;2860;54.284;10.158;2022-08-21T11:42:30;24.80;99.90
5675;DHT22;2860;54.284;10.158;2022-08-21T11:48:11;25.10;99.90
5675;DHT22;2860;54.284;10.158;2022-08-21T11:50:32;25.30;99.90
5675;DHT22;2860;54.284;10.158;2022-08-21T11:53:08;25.60;99.90
5675;DHT22;2860;54.284;10.158;2022-08-21T11:55:45;25.80;99.90
5675;DHT22;2860;54.284;10.158;2022-08-21T12:00:56;26.20;99.90
5675;DHT22;2860;54.284;10.158;2022-08-21T12:03:29;26.20;99.90
5675;DHT22;2860;54.284;10.158;2022-08-21T12:06:00;26.10;99.90
5675;DHT22;2860;54.284;10.158;2022-08-21T12:14:13;25.50;99.90
5675;DHT22;2860;54.284;10.158;2022-08-21T12:16:45;25.60;99.90
5675;DHT22;2860;54.284;10.158;2022-08-21T12:19:14;25.50;99.90
5675;DHT22;2860;54.284;10.158;2022-08-21T12:24:48;25.40;99.90
5675;DHT22;2860;54.284;10.158;2022-08-21T12:29:48;25.40;99.90
5675;DHT22;2860;54.284;10.158;2022-08-21T12:34:50;25.50;99.90
5675;DHT22;2860;54.284;10.158;2022-08-21T12:37:41;25.50;99.90
5675;DHT22;2860;54.284;10.158;2022-08-21T12:40:27;25.50;99.90
5675;DHT22;2860;54.284;10.158;2022-08-21T12:42:57;25.30;99.90
5675;DHT22;2860;54.284;10.158;2022-08-21T12:45:39;24.90;99.90
5675;DHT22;2860;54.284;10.158;2022-08-21T12:48:10;24.50;99.90
5675;DHT22;2860;54.284;10.158;2022-08-21T12:50:53;24.30;99.90
5675;DHT22;2860;54.284;10.158;2022-08-21T12:53:48;24.30;99.90
5675;DHT22;2860;54.284;10.158;2022-08-21T12:56:16;24.30;99.90
5675;DHT22;2860;54.284;10.158;2022-08-21T12:58:51;24.10;99.90
5675;DHT22;2860;54.284;10.158;2022-08-21T13:01:35;24.10;99.90
5675;DHT22;2860;54.284;10.158;2022-08-21T13:04:03;24.20;99.90
5675;DHT22;2860;54.284;10.158;2022-08-21T13:06:37;24.40;99.90
5675;DHT22;2860;54.284;10.158;2022-08-21T13:09:12;24.40;99.90
5675;DHT22;2860;54.284;10.158;2022-08-21T13:11:43;24.60;99.90
5675;DHT22;2860;54.284;10.158;2022-08-21T13:14:41;24.80;99.90
5675;DHT22;2860;54.284;10.158;2022-08-21T13:17:09;24.90;99.90
5675;DHT22;2860;54.284;10.158;2022-08-21T13:19:35;24.90;99.90
5675;DHT22;2860;54.284;10.158;2022-08-21T13:22:01;24.90;99.90
5675;DHT22;2860;54.284;10.158;2022-08-21T13:24:31;24.90;99.90
5675;DHT22;2860;54.284;10.158;2022-08-21T13:26:57;24.90;99.90
5675;DHT22;2860;54.284;10.158;2022-08-21T13:29:30;24.90;99.90
5675;DHT22;2860;54.284;10.158;2022-08-21T13:32:01;24.90;99.90
5675;DHT22;2860;54.284;10.158;2022-08-21T13:34:34;25.10;99.90
5675;DHT22;2860;54.284;10.158;2022-08-21T13:37:04;25.20;99.90
5675;DHT22;2860;54.284;10.158;2022-08-21T13:39:30;25.20;99.90
5675;DHT22;2860;54.284;10.158;2022-08-21T13:41:59;25.20;99.90
5675;DHT22;2860;54.284;10.158;2022-08-21T13:44:44;25.30;99.90
5675;DHT22;2860;54.284;10.158;2022-08-21T13:47:12;25.50;99.90
5675;DHT22;2860;54.284;10.158;2022-08-21T13:49:49;25.50;99.90
5675;DHT22;2860;54.284;10.158;2022-08-21T13:52:22;25.50;99.90
5675;DHT22;2860;54.284;10.158;2022-08-21T13:55:09;25.60;99.90
5675;DHT22;2860;54.284;10.158;2022-08-21T13:57:35;25.60;99.90
5675;DHT22;2860;54.284;10.158;2022-08-21T14:00:14;25.50;99.90
5675;DHT22;2860;54.284;10.158;2022-08-21T14:02:43;25.40;99.90
5675;DHT22;2860;54.284;10.158;2022-08-21T14:05:30;25.30;99.90
5675;DHT22;2860;54.284;10.158;2022-08-21T14:08:10;25.20;99.90
5675;DHT22;2860;54.284;10.158;2022-08-21T14:10:45;25.20;99.90
5675;DHT22;2860;54.284;10.158;2022-08-21T14:13:40;25.20;99.90
5675;DHT22;2860;54.284;10.158;2022-08-21T14:16:22;25.10;99.90
5675;DHT22;2860;54.284;10.158;2022-08-21T14:18:55;25.10;99.90
5675;DHT22;2860;54.284;10.158;2022-08-21T14:21:38;25.00;99.90
5675;DHT22;2860;54.284;10.158;2022-08-21T14:24:10;25.00;99.90
5675;DHT22;2860;54.284;10.158;2022-08-21T14:26:44;25.10;99.90
5675;DHT22;2860;54.284;10.158;2022-08-21T14:29:11;25.10;99.90
5675;DHT22;2860;54.284;10.158;2022-08-21T14:31:37;25.10;99.90
5675;DHT22;2860;54.284;10.158;2022-08-21T14:34:03;25.00;99.90
5675;DHT22;2860;54.284;10.158;2022-08-21T14:36:28;25.10;99.90
5675;DHT22;2860;54.284;10.158;2022-08-21T14:38:54;25.20;99.90
5675;DHT22;2860;54.284;10.158;2022-08-21T14:41:23;25.20;99.90
5675;DHT22;2860;54.284;10.158;2022-08-21T14:43:51;25.30;99.90
5675;DHT22;2860;54.284;10.158;2022-08-21T14:46:21;25.00;99.90
5675;DHT22;2860;54.284;10.158;2022-08-21T14:48:48;24.80;99.90
5675;DHT22;2860;54.284;10.158;2022-08-21T14:51:14;24.60;99.90
5675;DHT22;2860;54.284;10.158;2022-08-21T14:53:40;24.80;99.90
5675;DHT22;2860;54.284;10.158;2022-08-21T14:56:06;24.90;99.90
5675;DHT22;2860;54.284;10.158;2022-08-21T14:58:34;25.10;99.90
5675;DHT22;2860;54.284;10.158;2022-08-21T15:01:00;25.20;99.90
5675;DHT22;2860;54.284;10.158;2022-08-21T15:03:30;25.20;99.90
5675;DHT22;2860;54.284;10.158;2022-08-21T15:05:55;25.60;99.90
5675;DHT22;2860;54.284;10.158;2022-08-21T15:08:21;25.90;99.90
5675;DHT22;2860;54.284;10.158;2022-08-21T15:10:46;26.10;99.90
5675;DHT22;2860;54.284;10.158;2022-08-21T15:13:12;26.30;99.90
5675;DHT22;2860;54.284;10.158;2022-08-21T15:15:41;26.30;99.90
5675;DHT22;2860;54.284;10.158;2022-08-21T15:18:07;26.40;99.90
5675;DHT22;2860;54.284;10.158;2022-08-21T15:20:33;26.20;99.90
5675;DHT22;2860;54.284;10.158;2022-08-21T15:22:59;25.90;99.90
5675;DHT22;2860;54.284;10.158;2022-08-21T15:25:25;25.70;99.90
5675;DHT22;2860;54.284;10.158;2022-08-21T15:27:50;25.50;99.90
5675;DHT22;2860;54.284;10.158;2022-08-21T15:30:16;25.10;99.90
5675;DHT22;2860;54.284;10.158;2022-08-21T15:32:41;24.60;99.90
5675;DHT22;2860;54.284;10.158;2022-08-21T15:35:08;24.40;99.90
5675;DHT22;2860;54.284;10.158;2022-08-21T15:37:33;24.30;99.90
5675;DHT22;2860;54.284;10.158;2022-08-21T15:39:59;24.40;99.90
5675;DHT22;2860;54.284;10.158;2022-08-21T15:42:25;24.50;99.90
5675;DHT22;2860;54.284;10.158;2022-08-21T15:44:55;24.60;99.90
5675;DHT22;2860;54.284;10.158;2022-08-21T15:47:27;24.70;99.90
5675;DHT22;2860;54.284;10.158;2022-08-21T15:49:53;24.70;99.90
5675;DHT22;2860;54.284;10.158;2022-08-21T15:52:21;24.80;99.90
5675;DHT22;2860;54.284;10.158;2022-08-21T15:54:47;24.90;99.90
5675;DHT22;2860;54.284;10.158;2022-08-21T15:57:15;24.90;99.90
5675;DHT22;2860;54.284;10.158;2022-08-21T15:59:44;24.90;99.90
5675;DHT22;2860;54.284;10.158;2022-08-21T16:02:15;24.90;99.90
5675;DHT22;2860;54.284;10.158;2022-08-21T16:04:42;24.80;99.90
5675;DHT22;2860;54.284;10.158;2022-08-21T16:07:08;24.60;99.90
5675;DHT22;2860;54.284;10.158;2022-08-21T16:09:34;24.40;99.90
5675;DHT22;2860;54.284;10.158;2022-08-21T16:12:00;24.10;99.90
5675;DHT22;2860;54.284;10.158;2022-08-21T16:14:26;23.70;99.90
5675;DHT22;2860;54.284;10.158;2022-08-21T16:16:53;23.40;99.90
5675;DHT22;2860;54.284;10.158;2022-08-21T16:19:19;23.20;99.90
5675;DHT22;2860;54.284;10.158;2022-08-21T16:22:04;23.10;99.90
5675;DHT22;2860;54.284;10.158;2022-08-21T16:24:35;23.00;99.90
5675;DHT22;2860;54.284;10.158;2022-08-21T16:27:10;23.10;99.90
5675;DHT22;2860;54.284;10.158;2022-08-21T16:29:48;23.20;99.90
5675;DHT22;2860;54.284;10.158;2022-08-21T16:32:22;23.30;99.90
5675;DHT22;2860;54.284;10.158;2022-08-21T16:34:52;23.30;99.90
5675;DHT22;2860;54.284;10.158;2022-08-21T16:37:18;23.20;99.90
5675;DHT22;2860;54.284;10.158;2022-08-21T16:39:54;23.10;99.90
5675;DHT22;2860;54.284;10.158;2022-08-21T16:42:22;23.00;99.90
5675;DHT22;2860;54.284;10.158;2022-08-21T16:45:14;23.00;99.90
5675;DHT22;2860;54.284;10.158;2022-08-21T16:48:07;22.90;99.90
5675;DHT22;2860;54.284;10.158;2022-08-21T16:50:34;22.80;99.90
5675;DHT22;2860;54.284;10.158;2022-08-21T16:53:01;22.60;99.90
5675;DHT22;2860;54.284;10.158;2022-08-21T16:55:27;22.50;99.90
5675;DHT22;2860;54.284;10.158;2022-08-21T16:57:53;22.40;99.90
5675;DHT22;2860;54.284;10.158;2022-08-21T17:00:20;22.30;99.90
5675;DHT22;2860;54.284;10.158;2022-08-21T17:02:48;22.10;99.90
5675;DHT22;2860;54.284;10.158;2022-08-21T17:05:15;22.00;99.90